Time;durP1;ratioP1;P1;durP2;ratioP2;P2;SDS_P1;SDS_P2;PMS_P1;PMS_P2;Temp;Humidity;BMP_temperature;BMP_pressure;BME280_temperature;BME280_humidity;BME280_pressure;Samples;Min_cycle;Max_cycle;Signal;HPM_P1;HPM_P2
2021/12/23 00:02:21;;;;;;;233.43;44.53;;;0.00;1843.20;;;;;;5093686;28;20051;-63
2021/12/23 00:04:47;;;;;;;97.25;35.10;;;0.10;2048.00;;;;;;5093415;28;20111;-67
2021/12/23 00:07:13;;;;;;;72.47;33.38;;;0.20;2099.20;;;;;;5093935;28;20406;-66
2021/12/23 00:12:24;;;;;;;70.82;30.73;;;0.60;1894.40;;;;;;5071520;28;20036;-66
2021/12/23 00:14:51;;;;;;;80.70;36.40;;;0.80;1843.20;;;;;;5071539;28;20390;-64
2021/12/23 00:17:26;;;;;;;98.32;40.55;;;25.60;1792.00;;;;;;5071432;28;20032;-66
2021/12/23 00:23:21;;;;;;;113.82;42.83;;;25.70;1740.80;;;;;;5071272;28;20032;-65
2021/12/23 00:25:27;;;;;;;112.50;45.30;;;25.90;1689.60;;;;;;5071626;28;20169;-64
2021/12/23 00:27:53;;;;;;;127.35;46.22;;;25.90;1689.60;;;;;;5053924;28;20078;-61
2021/12/23 00:30:19;;;;;;;127.35;49.45;;;26.00;1664.00;;;;;;5071102;28;20037;-61
2021/12/23 00:32:44;;;;;;;114.10;48.30;;;25.90;1638.40;;;;;;5054417;28;20040;-61
2021/12/23 00:35:10;;;;;;;114.70;47.85;;;25.80;1612.80;;;;;;5071259;28;20352;-59
2021/12/23 00:37:40;;;;;;;106.15;46.28;;;25.80;1587.20;;;;;;5071077;28;20122;-60
2021/12/23 00:40:09;;;;;;;100.82;43.90;;;25.80;1561.60;;;;;;5071550;28;20070;-61
2021/12/23 00:42:35;;;;;;;93.82;38.47;;;25.90;1561.60;;;;;;5054112;28;20091;-59
2021/12/23 00:45:03;;;;;;;91.43;39.63;;;25.80;1561.60;;;;;;5071037;28;20024;-61
2021/12/23 00:47:29;;;;;;;80.13;36.03;;;25.80;1561.60;;;;;;5071002;28;20355;-61
2021/12/23 00:49:55;;;;;;;73.82;33.33;;;25.60;1561.60;;;;;;5086348;28;20036;-59
2021/12/23 00:52:28;;;;;;;63.42;28.23;;;25.60;1587.20;;;;;;5093524;28;20017;-61
2021/12/23 00:54:54;;;;;;;62.00;28.58;;;0.70;1587.20;;;;;;5093131;28;20394;-59
2021/12/23 00:57:26;;;;;;;56.40;26.55;;;0.40;1612.80;;;;;;5093282;28;20028;-58
2021/12/23 00:59:51;;;;;;;57.83;28.50;;;0.20;1664.00;;;;;;5093262;28;20036;-58
2021/12/23 01:02:18;;;;;;;72.28;32.65;;;0.10;1689.60;;;;;;5093147;28;20051;-60
2021/12/23 01:04:43;;;;;;;73.28;33.83;;;0.00;1689.60;;;;;;5093243;28;20485;-61
2021/12/23 01:07:10;;;;;;;67.82;33.72;;;0.00;1689.60;;;;;;5093468;28;20025;-62
2021/12/23 01:09:36;;;;;;;73.80;32.72;;;0.00;1715.20;;;;;;5093106;28;20145;-59
2021/12/23 01:12:02;;;;;;;77.55;32.63;;;0.20;1715.20;;;;;;5096692;28;20024;-63
2021/12/23 01:14:39;;;;;;;73.07;32.75;;;0.40;1715.20;;;;;;5097053;28;20059;-61
2021/12/23 01:17:29;;;;;;;62.85;29.00;;;0.40;1689.60;;;;;;5096770;28;20339;-62
2021/12/23 01:19:56;;;;;;;67.68;31.60;;;0.20;1689.60;;;;;;5096855;28;20024;-60
2021/12/23 01:22:23;;;;;;;93.15;42.50;;;0.00;1689.60;;;;;;5096519;28;20541;-59
2021/12/23 01:24:50;;;;;;;93.07;42.15;;;0.10;1740.80;;;;;;5096457;28;20028;-60
2021/12/23 01:27:16;;;;;;;89.20;41.03;;;0.20;1843.20;;;;;;5096769;28;20020;-62
2021/12/23 01:29:42;;;;;;;86.90;39.92;;;0.40;1894.40;;;;;;5096430;28;20034;-62
2021/12/23 01:32:08;;;;;;;81.18;37.35;;;0.60;1817.60;;;;;;5095144;28;20059;-62
2021/12/23 01:34:35;;;;;;;72.65;33.53;;;0.80;1766.40;;;;;;5096144;28;20020;-60
2021/12/23 01:37:03;;;;;;;64.70;31.70;;;25.60;1740.80;;;;;;5096377;28;20024;-62
2021/12/23 01:39:29;;;;;;;67.60;29.27;;;25.70;1715.20;;;;;;5096062;28;20438;-59
2021/12/23 01:41:55;;;;;;;55.08;28.00;;;25.80;1689.60;;;;;;5096264;28;20107;-59
2021/12/23 01:44:20;;;;;;;57.80;29.42;;;25.80;1689.60;;;;;;5096317;28;20055;-59
2021/12/23 01:46:46;;;;;;;51.67;29.45;;;25.80;1612.80;;;;;;5094626;28;20029;-59
2021/12/23 01:49:12;;;;;;;49.78;26.80;;;25.80;1587.20;;;;;;5096498;28;20377;-60
2021/12/23 01:51:38;;;;;;;51.25;26.85;;;25.80;1561.60;;;;;;5096195;28;20077;-60
2021/12/23 01:54:04;;;;;;;60.45;29.45;;;25.70;1561.60;;;;;;5095937;28;20043;-59
2021/12/23 01:56:30;;;;;;;55.60;29.17;;;0.90;1587.20;;;;;;5096262;28;20347;-59
2021/12/23 01:58:56;;;;;;;58.97;28.70;;;0.80;1612.80;;;;;;5096060;28;20042;-60
2021/12/23 02:01:22;;;;;;;57.33;28.65;;;0.70;1612.80;;;;;;5094611;28;20040;-60
2021/12/23 02:03:48;;;;;;;54.58;27.60;;;0.30;1612.80;;;;;;5095693;28;20048;-59
2021/12/23 02:06:14;;;;;;;59.05;24.95;;;0.00;1664.00;;;;;;5095959;28;20099;-59
2021/12/23 02:08:40;;;;;;;47.38;24.02;;;12.90;1689.60;;;;;;5095643;28;20079;-60
2021/12/23 02:11:08;;;;;;;46.75;23.00;;;13.10;1715.20;;;;;;5095622;28;20024;-60
2021/12/23 02:13:34;;;;;;;45.40;24.00;;;13.20;1715.20;;;;;;5095821;28;20488;-59
2021/12/23 02:16:01;;;;;;;40.75;20.88;;;13.10;1766.40;;;;;;5095546;28;20377;-60
2021/12/23 02:18:27;;;;;;;50.03;22.60;;;12.90;1868.80;;;;;;5095629;28;20070;-61
2021/12/23 02:20:54;;;;;;;40.00;22.25;;;0.00;1996.80;;;;;;5095687;28;20075;-61
2021/12/23 02:23:20;;;;;;;44.40;22.75;;;0.10;2022.40;;;;;;5095265;28;20055;-62
2021/12/23 02:25:46;;;;;;;36.75;19.67;;;0.30;1920.00;;;;;;5095641;28;20020;-59
2021/12/23 02:28:16;;;;;;;35.58;19.65;;;0.50;1843.20;;;;;;5095261;28;20024;-60
2021/12/23 02:30:43;;;;;;;35.05;19.40;;;0.60;1792.00;;;;;;5093949;28;20032;-60
2021/12/23 02:33:08;;;;;;;33.13;18.48;;;0.70;1740.80;;;;;;5095422;28;20027;-60
2021/12/23 02:35:35;;;;;;;34.13;17.80;;;0.80;1740.80;;;;;;5095487;28;20541;-60
2021/12/23 02:38:01;;;;;;;36.17;19.73;;;0.90;1715.20;;;;;;5095297;28;20028;-60
2021/12/23 02:40:39;;;;;;;35.65;19.25;;;25.60;1689.60;;;;;;5095348;28;20096;-60
2021/12/23 02:43:15;;;;;;;34.75;18.83;;;25.70;1689.60;;;;;;5095288;28;20111;-59
2021/12/23 02:45:43;;;;;;;35.63;20.05;;;25.80;1664.00;;;;;;5095119;28;20377;-60
2021/12/23 02:48:21;;;;;;;36.65;19.42;;;25.70;1612.80;;;;;;5095218;28;20054;-59
2021/12/23 02:50:51;;;;;;;42.72;21.75;;;25.70;1612.80;;;;;;5095061;28;20073;-61
2021/12/23 02:53:17;;;;;;;37.05;19.83;;;25.80;1587.20;;;;;;5094916;28;20024;-60
2021/12/23 02:55:44;;;;;;;39.00;20.50;;;25.80;1587.20;;;;;;5094943;28;20024;-60
2021/12/23 02:58:10;;;;;;;33.50;20.15;;;25.80;1561.60;;;;;;5094664;28;20562;-62
2021/12/23 03:00:37;;;;;;;37.65;19.58;;;25.70;1561.60;;;;;;5094820;28;20024;-60
2021/12/23 03:03:03;;;;;;;35.92;20.42;;;25.60;1587.20;;;;;;5094559;28;20043;-60
2021/12/23 03:05:29;;;;;;;44.47;21.85;;;0.90;1612.80;;;;;;5094807;28;20032;-60
2021/12/23 03:07:55;;;;;;;34.65;19.13;;;0.80;1587.20;;;;;;5094467;28;20366;-59
2021/12/23 03:10:22;;;;;;;34.70;18.88;;;0.60;1587.20;;;;;;5094481;28;20040;-59
2021/12/23 03:12:48;;;;;;;36.58;19.63;;;0.30;1638.40;;;;;;5094600;28;20031;-59
2021/12/23 03:15:14;;;;;;;37.65;19.38;;;0.10;1664.00;;;;;;5094568;28;20462;-60
2021/12/23 03:17:40;;;;;;;38.38;19.60;;;0.00;1689.60;;;;;;5092947;28;20081;-60
2021/12/23 03:20:06;;;;;;;49.45;20.88;;;0.00;1689.60;;;;;;5094481;28;20069;-59
2021/12/23 03:22:32;;;;;;;33.28;18.92;;;12.90;1689.60;;;;;;5093853;28;20020;-59
2021/12/23 03:24:58;;;;;;;38.58;20.23;;;12.90;1715.20;;;;;;5092633;28;20569;-60
2021/12/23 03:27:24;;;;;;;35.33;19.48;;;13.00;1715.20;;;;;;5094308;28;20107;-60
2021/12/23 03:29:49;;;;;;;34.90;19.63;;;13.00;1715.20;;;;;;5094461;28;20434;-59
2021/12/23 03:32:15;;;;;;;35.10;19.75;;;13.00;1715.20;;;;;;5094270;28;20039;-59
2021/12/23 03:34:41;;;;;;;37.70;19.33;;;13.00;1715.20;;;;;;5093872;28;20093;-59
2021/12/23 03:37:07;;;;;;;39.28;21.25;;;12.90;1715.20;;;;;;5094441;28;20020;-59
2021/12/23 03:39:33;;;;;;;36.67;20.85;;;0.00;1715.20;;;;;;5092811;28;20025;-59
2021/12/23 03:41:58;;;;;;;46.15;25.42;;;0.00;1792.00;;;;;;5094180;28;20050;-61
2021/12/23 03:44:24;;;;;;;44.85;24.27;;;0.20;1945.60;;;;;;5092293;28;20044;-62
2021/12/23 03:46:50;;;;;;;47.28;25.38;;;0.40;1843.20;;;;;;5094627;28;20027;-60
2021/12/23 03:49:16;;;;;;;47.10;24.83;;;0.60;1766.40;;;;;;5094092;28;20152;-59
2021/12/23 03:51:41;;;;;;;42.33;23.40;;;0.80;1740.80;;;;;;5093889;28;20110;-60
2021/12/23 03:54:07;;;;;;;43.97;23.52;;;0.90;1715.20;;;;;;5093997;28;20024;-58
2021/12/23 03:56:33;;;;;;;40.28;22.92;;;25.60;1689.60;;;;;;5094159;28;20036;-58
2021/12/23 03:58:59;;;;;;;40.65;20.77;;;25.70;1664.00;;;;;;5093998;28;20461;-59
2021/12/23 04:01:28;;;;;;;45.08;21.13;;;25.80;1664.00;;;;;;5092039;28;20077;-63
2021/12/23 04:03:54;;;;;;;44.40;21.13;;;25.90;1715.20;;;;;;5093698;28;20056;-60
2021/12/23 04:06:21;;;;;;;48.42;21.95;;;25.90;1664.00;;;;;;5093903;28;20077;-60
2021/12/23 04:08:48;;;;;;;49.03;21.77;;;26.00;1638.40;;;;;;5093981;28;20028;-58
2021/12/23 04:11:14;;;;;;;36.30;21.10;;;26.00;1612.80;;;;;;5093712;28;20107;-58
2021/12/23 04:13:40;;;;;;;42.35;20.77;;;26.00;1561.60;;;;;;5093688;28;20064;-60
2021/12/23 04:16:06;;;;;;;51.95;22.98;;;25.90;1561.60;;;;;;5093717;28;20020;-59
2021/12/23 04:18:32;;;;;;;45.22;21.08;;;25.90;1587.20;;;;;;5093699;28;20119;-59
2021/12/23 04:20:58;;;;;;;59.03;25.13;;;25.70;1612.80;;;;;;5093689;28;20112;-62
2021/12/23 04:23:26;;;;;;;54.42;24.10;;;25.60;1689.60;;;;;;5091603;28;20040;-61
2021/12/23 04:25:53;;;;;;;39.75;22.60;;;25.60;1715.20;;;;;;5093736;28;20036;-58
2021/12/23 04:28:19;;;;;;;47.25;22.90;;;0.90;1715.20;;;;;;5093630;28;20036;-58
2021/12/23 04:30:45;;;;;;;43.35;23.02;;;25.60;1689.60;;;;;;5093729;28;20028;-59
2021/12/23 04:33:11;;;;;;;49.33;24.77;;;25.60;1689.60;;;;;;5093328;28;20081;-57
2021/12/23 04:35:38;;;;;;;72.07;33.75;;;25.60;1689.60;;;;;;5093544;28;20028;-57
2021/12/23 04:38:04;;;;;;;92.05;41.70;;;25.60;1689.60;;;;;;5093178;28;20107;-57
2021/12/23 04:40:30;;;;;;;86.93;42.35;;;25.60;1689.60;;;;;;5093459;28;20380;-57
2021/12/23 04:42:57;;;;;;;100.15;48.80;;;25.60;1689.60;;;;;;5093426;28;20040;-57
2021/12/23 04:45:23;;;;;;;108.40;52.15;;;25.60;1689.60;;;;;;5093858;28;20030;-57
2021/12/23 04:47:49;;;;;;;97.78;46.08;;;25.60;1689.60;;;;;;5097401;28;20039;-57
2021/12/23 04:50:16;;;;;;;92.22;42.88;;;25.60;1689.60;;;;;;5097306;28;20422;-57
2021/12/23 04:52:43;;;;;;;76.57;40.33;;;0.90;1689.60;;;;;;5095811;28;20047;-57
2021/12/23 04:55:10;;;;;;;60.25;32.65;;;0.90;1689.60;;;;;;5097175;28;20020;-57
2021/12/23 04:57:36;;;;;;;69.75;32.03;;;0.90;1689.60;;;;;;5097190;28;20055;-57
2021/12/23 05:00:09;;;;;;;65.75;29.52;;;0.90;1689.60;;;;;;5097022;28;20078;-57
2021/12/23 05:02:35;;;;;;;59.53;31.48;;;25.60;1689.60;;;;;;5096830;28;20044;-59
2021/12/23 05:05:01;;;;;;;66.63;31.27;;;25.60;1689.60;;;;;;5096895;28;20031;-58
2021/12/23 05:07:26;;;;;;;56.65;31.48;;;25.60;1664.00;;;;;;5096760;28;20047;-57
2021/12/23 05:09:52;;;;;;;59.17;31.88;;;25.60;1689.60;;;;;;5097019;28;20023;-57
2021/12/23 05:12:18;;;;;;;51.17;27.10;;;25.60;1689.60;;;;;;5096878;28;20119;-57
2021/12/23 05:14:43;;;;;;;51.17;27.77;;;25.60;1689.60;;;;;;5097079;28;20038;-58
2021/12/23 05:17:09;;;;;;;47.33;26.67;;;25.60;1689.60;;;;;;5096737;28;20028;-57
2021/12/23 05:19:35;;;;;;;43.90;24.35;;;25.60;1689.60;;;;;;5096964;28;20110;-57
2021/12/23 05:22:01;;;;;;;51.80;24.75;;;25.60;1689.60;;;;;;5096773;28;20103;-60
2021/12/23 05:24:27;;;;;;;48.95;27.25;;;25.60;1689.60;;;;;;5096454;28;20066;-60
2021/12/23 05:26:52;;;;;;;56.65;26.20;;;25.60;1689.60;;;;;;5096863;28;20027;-60
2021/12/23 05:29:18;;;;;;;47.85;25.02;;;25.60;1689.60;;;;;;5096960;28;20385;-57
2021/12/23 05:31:44;;;;;;;48.85;26.13;;;25.60;1689.60;;;;;;5096452;28;20462;-56
2021/12/23 05:34:10;;;;;;;57.03;28.17;;;25.60;1689.60;;;;;;5095005;28;20482;-56
2021/12/23 05:36:35;;;;;;;78.47;36.40;;;25.60;1689.60;;;;;;5096372;28;20454;-57
2021/12/23 05:39:01;;;;;;;68.97;33.65;;;25.60;1664.00;;;;;;5096163;28;20086;-58
2021/12/23 05:41:27;;;;;;;61.03;31.35;;;25.60;1689.60;;;;;;5096421;28;20153;-57
2021/12/23 05:43:55;;;;;;;57.17;29.30;;;25.60;1689.60;;;;;;5095694;28;20118;-58
2021/12/23 05:46:21;;;;;;;58.88;31.38;;;25.60;1689.60;;;;;;5095943;28;20024;-57
2021/12/23 05:48:46;;;;;;;68.00;36.63;;;25.60;1689.60;;;;;;5096235;28;20043;-57
2021/12/23 05:51:12;;;;;;;63.22;32.75;;;0.90;1689.60;;;;;;5096183;28;20025;-56
2021/12/23 05:53:38;;;;;;;52.78;30.15;;;0.90;1689.60;;;;;;5095930;28;20081;-57
2021/12/23 05:56:05;;;;;;;63.75;33.78;;;0.90;1689.60;;;;;;5095652;28;20052;-56
2021/12/23 05:58:31;;;;;;;80.57;38.58;;;0.80;1689.60;;;;;;5096428;28;20107;-57
2021/12/23 06:00:57;;;;;;;98.50;42.67;;;0.90;1689.60;;;;;;5095729;28;20028;-57
2021/12/23 06:03:24;;;;;;;93.05;43.00;;;0.90;1715.20;;;;;;5095387;28;20052;-56
2021/12/23 06:05:50;;;;;;;67.70;32.20;;;0.80;1689.60;;;;;;5094292;28;20388;-58
2021/12/23 06:08:15;;;;;;;78.47;33.92;;;0.80;1689.60;;;;;;5094435;28;20036;-58
2021/12/23 06:10:41;;;;;;;76.53;34.53;;;0.80;1689.60;;;;;;5094325;28;20022;-58
2021/12/23 06:13:07;;;;;;;58.58;29.63;;;0.70;1766.40;;;;;;5096131;28;20062;-57
2021/12/23 06:15:32;;;;;;;73.57;31.35;;;0.80;1689.60;;;;;;5095234;28;20424;-57
2021/12/23 06:17:58;;;;;;;77.55;34.53;;;0.90;1689.60;;;;;;5095629;28;20028;-60
2021/12/23 06:20:24;;;;;;;75.72;38.15;;;0.80;1715.20;;;;;;5095564;28;20020;-58
2021/12/23 06:22:50;;;;;;;76.05;37.13;;;0.80;1715.20;;;;;;5095522;28;20032;-60
2021/12/23 06:25:16;;;;;;;73.82;34.65;;;0.80;1715.20;;;;;;5095451;28;20069;-61
2021/12/23 06:27:42;;;;;;;76.68;34.85;;;0.80;1868.80;;;;;;5095527;28;20077;-61
2021/12/23 06:30:21;;;;;;;72.93;36.88;;;0.80;1740.80;;;;;;5095340;28;20028;-60
2021/12/23 06:32:51;;;;;;;68.35;36.03;;;0.70;1740.80;;;;;;5095403;28;20032;-61
2021/12/23 06:35:19;;;;;;;67.18;34.78;;;0.70;1740.80;;;;;;5094798;28;20024;-56
2021/12/23 06:37:45;;;;;;;76.07;37.28;;;0.60;1740.80;;;;;;5094664;28;20555;-59
2021/12/23 06:40:11;;;;;;;99.18;44.38;;;0.60;1740.80;;;;;;5093406;28;20036;-60
2021/12/23 06:42:37;;;;;;;109.00;47.13;;;0.60;1740.80;;;;;;5094922;28;20020;-57
2021/12/23 06:45:05;;;;;;;121.95;55.80;;;0.60;1740.80;;;;;;5094332;28;20028;-59
2021/12/23 06:47:33;;;;;;;132.45;57.78;;;0.60;1766.40;;;;;;5094357;28;20059;-57
2021/12/23 06:49:59;;;;;;;136.32;61.92;;;0.70;1740.80;;;;;;5091931;28;20030;-57
2021/12/23 06:52:24;;;;;;;131.30;62.53;;;0.70;1740.80;;;;;;5093609;28;20425;-59
2021/12/23 06:54:53;;;;;;;121.55;56.63;;;0.70;1740.80;;;;;;5094055;28;20069;-57
2021/12/23 06:57:20;;;;;;;106.05;51.80;;;0.70;1740.80;;;;;;5091454;28;20035;-58
2021/12/23 06:59:46;;;;;;;92.88;48.85;;;0.70;1740.80;;;;;;5093699;28;20055;-59
2021/12/23 07:02:11;;;;;;;97.47;45.50;;;0.70;1740.80;;;;;;5094160;28;20074;-59
2021/12/23 07:04:39;;;;;;;106.28;46.10;;;0.80;1740.80;;;;;;5094741;28;20036;-59
2021/12/23 07:07:18;;;;;;;103.50;48.60;;;0.80;1740.80;;;;;;5094780;28;20028;-60
2021/12/23 07:09:44;;;;;;;96.25;46.85;;;0.80;1740.80;;;;;;5093909;28;20032;-59
2021/12/23 07:12:11;;;;;;;100.38;45.65;;;0.90;1740.80;;;;;;5094436;28;20020;-59
2021/12/23 07:14:38;;;;;;;98.50;45.92;;;25.60;1740.80;;;;;;5094454;28;20474;-59
2021/12/23 07:17:06;;;;;;;103.85;47.67;;;25.60;1740.80;;;;;;5094315;28;20039;-61
2021/12/23 07:19:32;;;;;;;99.95;46.97;;;25.70;1740.80;;;;;;5094242;28;20023;-61
2021/12/23 07:21:58;;;;;;;96.97;41.47;;;25.70;1740.80;;;;;;5092980;28;20061;-60
2021/12/23 07:24:24;;;;;;;92.40;40.15;;;25.80;1715.20;;;;;;5094223;28;20032;-61
2021/12/23 07:26:50;;;;;;;82.63;37.53;;;25.80;1715.20;;;;;;5094388;28;20103;-60
2021/12/23 07:29:15;;;;;;;71.40;36.80;;;25.90;1715.20;;;;;;5094249;28;20436;-61
2021/12/23 07:31:41;;;;;;;88.20;40.83;;;25.90;1715.20;;;;;;5094164;28;20089;-60
2021/12/23 07:34:07;;;;;;;96.80;40.97;;;26.00;1715.20;;;;;;5094288;28;20028;-57
2021/12/23 07:36:34;;;;;;;100.65;39.58;;;26.10;1715.20;;;;;;5093982;28;20020;-57
2021/12/23 07:39:01;;;;;;;95.47;40.20;;;26.10;1740.80;;;;;;5093901;28;20028;-59
2021/12/23 07:41:27;;;;;;;98.20;39.45;;;26.10;1715.20;;;;;;5093592;28;20027;-57
2021/12/23 07:43:59;;;;;;;78.95;36.60;;;26.30;1715.20;;;;;;5093902;28;20478;-57
2021/12/23 07:46:26;;;;;;;82.70;38.20;;;26.30;1715.20;;;;;;5093801;28;20077;-59
2021/12/23 07:48:52;;;;;;;79.10;37.00;;;26.50;1715.20;;;;;;5093747;28;20081;-57
2021/12/23 07:51:18;;;;;;;64.93;34.15;;;26.50;1715.20;;;;;;5094041;28;20020;-59
2021/12/23 07:53:44;;;;;;;62.47;32.95;;;51.20;1740.80;;;;;;5093678;28;20021;-57
2021/12/23 07:56:09;;;;;;;69.13;32.25;;;51.30;1715.20;;;;;;5092563;28;20469;-57
2021/12/23 07:58:35;;;;;;;60.95;32.05;;;51.30;1740.80;;;;;;5093700;28;20099;-57
2021/12/23 08:01:01;;;;;;;59.63;32.33;;;51.30;1740.80;;;;;;5093721;28;20031;-56
2021/12/23 08:03:27;;;;;;;61.42;31.02;;;51.40;1740.80;;;;;;5093007;28;20051;-56
2021/12/23 08:05:52;;;;;;;64.18;34.08;;;51.50;1766.40;;;;;;5093881;28;20024;-56
2021/12/23 08:08:19;;;;;;;55.75;31.02;;;51.50;1766.40;;;;;;5093962;28;20020;-57
2021/12/23 08:10:45;;;;;;;58.58;32.38;;;51.60;1766.40;;;;;;5093959;28;20400;-56
2021/12/23 08:13:10;;;;;;;73.32;37.28;;;51.60;1766.40;;;;;;5093743;28;20028;-57
2021/12/23 08:15:36;;;;;;;75.10;34.85;;;51.60;1740.80;;;;;;5093710;28;20046;-56
2021/12/23 08:18:02;;;;;;;69.47;36.65;;;51.60;1766.40;;;;;;5093836;28;20051;-56
2021/12/23 08:20:28;;;;;;;66.10;34.28;;;51.60;1766.40;;;;;;5096785;28;20517;-56
2021/12/23 08:22:54;;;;;;;66.07;33.30;;;51.70;1766.40;;;;;;5097875;28;20416;-56
2021/12/23 08:25:22;;;;;;;60.40;32.35;;;51.70;1766.40;;;;;;5097864;28;20028;-57
2021/12/23 08:27:48;;;;;;;62.58;34.75;;;51.80;1766.40;;;;;;5097656;28;20027;-57
2021/12/23 08:30:17;;;;;;;69.53;36.50;;;51.90;1766.40;;;;;;5097476;28;20024;-56
2021/12/23 08:32:44;;;;;;;62.63;32.40;;;51.90;1766.40;;;;;;5097668;28;20020;-57
2021/12/23 08:35:10;;;;;;;68.45;37.30;;;51.90;1766.40;;;;;;5097516;28;20053;-57
2021/12/23 08:37:37;;;;;;;65.57;35.42;;;52.00;1766.40;;;;;;5097140;28;20016;-57
2021/12/23 08:40:05;;;;;;;69.93;37.13;;;52.00;1766.40;;;;;;5097447;28;20409;-59
2021/12/23 08:42:31;;;;;;;80.55;40.85;;;52.10;1792.00;;;;;;5097175;28;20486;-56
2021/12/23 08:44:57;;;;;;;83.72;43.25;;;76.80;1766.40;;;;;;5096011;28;20127;-59
2021/12/23 08:47:23;;;;;;;89.88;45.70;;;76.80;1766.40;;;;;;5097407;28;20031;-58
2021/12/23 08:49:49;;;;;;;81.30;46.03;;;76.90;1766.40;;;;;;5097336;28;20388;-58
2021/12/23 08:52:15;;;;;;;94.82;48.13;;;77.00;1740.80;;;;;;5097346;28;20351;-57
2021/12/23 08:54:42;;;;;;;77.40;43.28;;;77.00;1766.40;;;;;;5095682;28;20054;-57
2021/12/23 08:57:08;;;;;;;93.65;47.45;;;77.00;1766.40;;;;;;5096921;28;20582;-57
2021/12/23 08:59:34;;;;;;;89.10;46.60;;;77.00;1766.40;;;;;;5097402;28;20473;-56
2021/12/23 09:02:01;;;;;;;94.90;48.03;;;77.10;1766.40;;;;;;5096903;28;20063;-56
2021/12/23 09:04:27;;;;;;;102.95;54.63;;;77.00;1740.80;;;;;;5096937;28;20062;-58
2021/12/23 09:06:52;;;;;;;113.20;55.10;;;77.00;1766.40;;;;;;5096968;28;20024;-57
2021/12/23 09:09:19;;;;;;;127.70;60.83;;;77.10;1792.00;;;;;;5096742;28;20035;-57
2021/12/23 09:11:45;;;;;;;137.35;63.53;;;77.10;1766.40;;;;;;5096680;28;20016;-59
2021/12/23 09:14:11;;;;;;;128.07;60.97;;;77.20;1792.00;;;;;;5096839;28;20032;-57
2021/12/23 09:16:38;;;;;;;125.32;58.97;;;77.20;1792.00;;;;;;5096958;28;20108;-58
2021/12/23 09:19:05;;;;;;;113.47;51.00;;;77.30;1792.00;;;;;;5096528;28;20028;-56
2021/12/23 09:21:31;;;;;;;111.28;50.45;;;77.30;1792.00;;;;;;5096692;28;20024;-59
2021/12/23 09:23:58;;;;;;;112.25;53.60;;;77.30;1792.00;;;;;;5096375;28;20040;-62
2021/12/23 09:26:24;;;;;;;99.15;48.38;;;77.40;1792.00;;;;;;5096773;28;20051;-63
2021/12/23 09:34:00;;;;;;;137.70;63.17;;;102.70;1766.40;;;;;;5096687;28;20035;-61
2021/12/23 09:36:26;;;;;;;111.63;52.15;;;102.60;1740.80;;;;;;5096529;28;20024;-61
2021/12/23 09:38:52;;;;;;;114.80;51.53;;;102.50;1740.80;;;;;;5096135;28;20397;-60
2021/12/23 09:41:21;;;;;;;116.00;50.78;;;102.40;1740.80;;;;;;5095926;28;20039;-60
2021/12/23 09:43:49;;;;;;;101.13;46.15;;;102.40;1740.80;;;;;;5096030;28;20028;-60
2021/12/23 09:46:17;;;;;;;104.13;49.30;;;102.40;1740.80;;;;;;5096277;28;20032;-61
2021/12/23 09:48:45;;;;;;;108.03;52.60;;;102.40;1740.80;;;;;;5096144;28;20531;-61
2021/12/23 09:51:14;;;;;;;93.15;49.17;;;77.70;1766.40;;;;;;5096343;28;20024;-61
2021/12/23 09:53:42;;;;;;;83.93;45.33;;;77.70;1766.40;;;;;;5095879;28;20027;-63
2021/12/23 09:56:08;;;;;;;85.32;43.15;;;77.70;1766.40;;;;;;5096112;28;20189;-61
2021/12/23 09:58:34;;;;;;;77.95;42.60;;;77.70;1766.40;;;;;;5096094;28;20035;-61
2021/12/23 10:01:02;;;;;;;70.85;39.70;;;77.70;1792.00;;;;;;5095687;28;20024;-60
2021/12/23 10:03:28;;;;;;;73.15;42.58;;;77.70;1766.40;;;;;;5095476;28;20044;-60
2021/12/23 10:05:55;;;;;;;133.73;48.35;;;77.70;1792.00;;;;;;5095681;28;20462;-60
2021/12/23 10:08:24;;;;;;;76.15;43.22;;;77.70;1792.00;;;;;;5095631;28;20535;-60
2021/12/23 10:10:55;;;;;;;73.00;40.88;;;77.70;1792.00;;;;;;5095533;28;20038;-60
2021/12/23 10:32:58;;;;;;;73.75;41.58;;;102.40;1792.00;;;;;;5095499;28;20024;-60
2021/12/23 10:38:24;;;;;;;69.07;38.70;;;102.40;1766.40;;;;;;5095237;28;20460;-60
2021/12/23 10:40:53;;;;;;;71.53;39.07;;;102.40;1792.00;;;;;;5094981;28;20021;-60
2021/12/23 10:43:26;;;;;;;76.95;43.38;;;102.40;1766.40;;;;;;5092875;28;20630;-60
2021/12/23 10:45:58;;;;;;;73.90;41.72;;;102.40;1766.40;;;;;;5094945;28;20036;-60
2021/12/23 10:48:28;;;;;;;74.45;42.38;;;102.40;1766.40;;;;;;5093572;28;20052;-61
2021/12/23 10:51:07;;;;;;;76.22;39.75;;;102.50;1766.40;;;;;;5089767;28;20020;-60
2021/12/23 10:59:02;;;;;;;69.50;39.53;;;102.50;1766.40;;;;;;5093518;28;20428;-60
2021/12/23 11:01:29;;;;;;;62.65;37.08;;;102.50;1740.80;;;;;;5092620;28;20059;-60
2021/12/23 11:04:01;;;;;;;66.75;36.75;;;102.50;1740.80;;;;;;5092851;28;20145;-60
2021/12/23 11:06:33;;;;;;;69.18;37.92;;;102.50;1740.80;;;;;;5093120;28;20498;-61
2021/12/23 11:37:07;;;;;;;64.03;34.72;;;102.60;1689.60;;;;;;5012353;28;20079;-60
2021/12/23 11:39:50;;;;;;;61.25;32.33;;;102.60;1689.60;;;;;;5012038;28;20041;-63
2021/12/23 11:42:26;;;;;;;77.18;36.97;;;102.70;1689.60;;;;;;5011938;28;20038;-60
2021/12/23 11:44:52;;;;;;;85.80;40.92;;;102.70;1664.00;;;;;;5011862;28;20099;-61
2021/12/23 11:47:18;;;;;;;79.03;40.25;;;102.70;1689.60;;;;;;5011942;28;20029;-60
2021/12/23 11:49:46;;;;;;;79.13;35.78;;;102.70;1689.60;;;;;;5011884;28;20034;-60
2021/12/23 11:52:14;;;;;;;59.20;31.05;;;102.70;1689.60;;;;;;5011850;28;20033;-62
2021/12/23 11:54:43;;;;;;;65.28;33.85;;;102.70;1689.60;;;;;;5009651;28;20040;-59
2021/12/23 11:57:21;;;;;;;57.30;30.67;;;102.80;1664.00;;;;;;5009937;28;20041;-62
2021/12/23 12:00:15;;;;;;;76.85;35.08;;;102.70;1689.60;;;;;;5010226;28;20034;-65
2021/12/23 12:02:41;;;;;;;75.15;34.72;;;102.80;1740.80;;;;;;5009828;28;20081;-59
2021/12/23 12:05:16;;;;;;;73.45;34.83;;;102.80;1715.20;;;;;;5010309;28;20519;-59
2021/12/23 12:07:43;;;;;;;74.90;34.43;;;102.80;1664.00;;;;;;5012193;28;20086;-62
2021/12/23 12:10:17;;;;;;;79.72;37.80;;;102.80;1664.00;;;;;;5036028;28;20028;-59
2021/12/23 12:13:20;;;;;;;86.97;36.10;;;102.70;1664.00;;;;;;5090183;28;20107;-58
2021/12/23 12:15:50;;;;;;;77.53;37.53;;;102.70;1689.60;;;;;;5049552;28;20029;-58
2021/12/23 12:18:19;;;;;;;82.07;38.85;;;102.70;1689.60;;;;;;5049469;28;20064;-60
2021/12/23 12:20:52;;;;;;;77.57;37.42;;;102.80;1689.60;;;;;;5050504;28;20060;-59
2021/12/23 12:23:20;;;;;;;73.00;37.22;;;102.80;1689.60;;;;;;5050990;28;20485;-59
2021/12/23 12:25:56;;;;;;;71.45;35.60;;;102.70;1689.60;;;;;;5051114;28;20477;-62
2021/12/23 12:28:33;;;;;;;77.20;38.20;;;102.70;1689.60;;;;;;5051201;28;20051;-57
2021/12/23 12:31:08;;;;;;;80.22;37.20;;;102.70;1689.60;;;;;;5051034;28;20167;-58
2021/12/23 12:33:57;;;;;;;80.35;39.67;;;102.70;1689.60;;;;;;5051023;28;20068;-61
2021/12/23 12:36:24;;;;;;;85.78;40.42;;;102.70;1715.20;;;;;;5034223;28;20025;-60
2021/12/23 12:39:03;;;;;;;88.53;43.75;;;102.70;1715.20;;;;;;5050964;28;20037;-61
2021/12/23 12:41:35;;;;;;;73.93;37.88;;;102.70;1715.20;;;;;;5051017;28;20064;-60
2021/12/23 12:46:50;;;;;;;88.35;50.85;;;102.70;1715.20;;;;;;5051447;28;20033;-62
2021/12/23 12:49:28;;;;;;;73.43;41.75;;;103.00;2124.80;;;;;;5064925;28;20107;-60
2021/12/23 12:52:22;;;;;;;78.15;40.13;;;103.10;1792.00;;;;;;5093235;28;20481;-59
2021/12/23 12:54:53;;;;;;;86.17;41.80;;;103.00;1715.20;;;;;;5093216;28;20024;-61
2021/12/23 12:57:21;;;;;;;84.82;42.92;;;103.00;1715.20;;;;;;5093204;28;20660;-59
2021/12/23 12:59:49;;;;;;;87.10;43.13;;;102.90;1715.20;;;;;;5092203;28;20031;-59
2021/12/23 13:02:24;;;;;;;70.50;37.67;;;102.80;1715.20;;;;;;5091567;28;20036;-59
2021/12/23 13:05:10;;;;;;;76.93;41.30;;;102.80;1715.20;;;;;;5089382;28;20040;-60
2021/12/23 13:07:38;;;;;;;73.00;38.80;;;102.70;1740.80;;;;;;5093551;28;20028;-59
2021/12/23 13:10:09;;;;;;;81.57;42.63;;;102.70;1740.80;;;;;;5092691;28;20023;-59
2021/12/23 13:12:51;;;;;;;83.25;43.00;;;102.70;1740.80;;;;;;5096505;28;20016;-59
2021/12/23 13:15:20;;;;;;;73.32;39.05;;;102.60;1766.40;;;;;;5095448;28;20034;-59
2021/12/23 13:17:48;;;;;;;77.95;39.95;;;102.70;1740.80;;;;;;5096799;28;20077;-59
2021/12/23 13:20:16;;;;;;;76.00;40.58;;;102.70;1740.80;;;;;;5096791;28;20024;-59
2021/12/23 13:22:44;;;;;;;72.15;38.88;;;102.70;1740.80;;;;;;5096552;28;20024;-59